createdAt,value
2023-01-13T00:01:10.171Z,99855.75
2023-01-13T00:03:39.871Z,99851.81
2023-01-13T00:06:09.049Z,99852.59
2023-01-13T00:08:37.210Z,99851.97
2023-01-13T00:11:05.286Z,99855.31
2023-01-13T00:13:35.416Z,99857.38
2023-01-13T00:16:06.616Z,99857.50
2023-01-13T00:18:36.984Z,99856.72
2023-01-13T00:21:08.836Z,99847.06
2023-01-13T00:23:37.225Z,99853.25
2023-01-13T00:26:08.586Z,99851.50
2023-01-13T00:28:37.336Z,99848.94
2023-01-13T00:31:09.596Z,99848.94
2023-01-13T00:33:38.024Z,99848.31
2023-01-13T00:36:09.878Z,99854.34
2023-01-13T00:38:39.068Z,99849.94
2023-01-13T00:41:09.339Z,99849.44
2023-01-13T00:43:54.987Z,99853.25
2023-01-13T00:46:23.521Z,99853.09
2023-01-13T00:48:51.618Z,99848.31
2023-01-13T00:51:22.725Z,99851.00
2023-01-13T00:53:52.399Z,99850.25
2023-01-13T00:56:38.410Z,99850.25
2023-01-13T00:59:07.680Z,99843.09
2023-01-13T01:01:36.061Z,99846.75
2023-01-13T01:04:04.134Z,99841.50
2023-01-13T01:06:33.630Z,99845.78
2023-01-13T01:09:01.942Z,99845.34
2023-01-13T01:11:31.718Z,99845.34
2023-01-13T01:14:02.128Z,99842.94
2023-01-13T01:16:31.947Z,99847.53
2023-01-13T01:19:01.456Z,99842.66
2023-01-13T01:21:30.337Z,99838.66
2023-01-13T01:24:01.936Z,99834.72
2023-01-13T01:26:31.594Z,99838.97
2023-01-13T01:29:02.209Z,99835.63
2023-01-13T01:31:32.912Z,99845.16
2023-01-13T01:34:01.761Z,99833.91
2023-01-13T01:36:30.565Z,99840.25
2023-01-13T01:39:00.941Z,99837.41
2023-01-13T01:41:31.672Z,99835.97
2023-01-13T01:44:00.447Z,99838.97
2023-01-13T01:46:30.767Z,99836.75
2023-01-13T01:49:04.633Z,99832.19
2023-01-13T01:51:36.507Z,99833.59
2023-01-13T01:54:11.482Z,99826.78
2023-01-13T01:56:42.895Z,99822.34
2023-01-13T01:59:11.617Z,99827.25
2023-01-13T02:01:41.776Z,99826.00
2023-01-13T02:04:15.421Z,99834.38
2023-01-13T02:06:45.541Z,99835.22
2023-01-13T02:09:16.083Z,99840.91
2023-01-13T02:12:01.591Z,99838.06
2023-01-13T02:14:31.782Z,99836.63
2023-01-13T02:17:15.819Z,99829.00
2023-01-13T02:20:25.455Z,99837.41
2023-01-13T02:23:52.280Z,99834.38
2023-01-13T02:26:50.083Z,99839.31
2023-01-13T02:29:56.833Z,99840.56
2023-01-13T02:32:31.191Z,99838.06
2023-01-13T02:35:07.945Z,99839.00
2023-01-13T02:37:40.467Z,99843.44
2023-01-13T02:40:13.561Z,99844.88
2023-01-13T02:43:06.035Z,99851.69
2023-01-13T02:45:40.881Z,99857.72
2023-01-13T02:48:12.174Z,99861.34
2023-01-13T02:50:45.544Z,99853.25
2023-01-13T02:53:19.501Z,99859.44
2023-01-13T02:56:07.281Z,99854.22
2023-01-13T02:58:37.550Z,99857.38
2023-01-13T03:01:10.704Z,99863.41
2023-01-13T03:03:38.872Z,99856.44
2023-01-13T03:06:26.015Z,99851.69
2023-01-13T03:09:01.119Z,99853.13
2023-01-13T03:11:36.243Z,99860.41
2023-01-13T03:14:19.798Z,99856.44
2023-01-13T03:17:00.714Z,99852.31
2023-01-13T03:19:38.445Z,99856.44
2023-01-13T03:22:15.706Z,99856.25
2023-01-13T03:24:48.144Z,99860.22
2023-01-13T03:27:21.802Z,99853.25
2023-01-13T03:29:56.534Z,99854.06
2023-01-13T03:32:29.400Z,99855.47
2023-01-13T03:35:03.733Z,99849.16
2023-01-13T03:37:36.321Z,99857.38
2023-01-13T03:40:10.011Z,99862.13
2023-01-13T03:42:42.068Z,99864.34
2023-01-13T03:45:15.073Z,99863.72
2023-01-13T03:47:52.391Z,99865.94
2023-01-13T03:50:23.838Z,99858.66
2023-01-13T03:52:57.396Z,99864.03
2023-01-13T03:55:30.691Z,99865.47
2023-01-13T03:58:03.244Z,99868.78
2023-01-13T04:00:38.779Z,99867.19
2023-01-13T04:03:11.315Z,99868.00
2023-01-13T04:05:43.413Z,99868.94
2023-01-13T04:08:18.042Z,99883.53
2023-01-13T04:10:54.612Z,99877.66
2023-01-13T04:13:25.937Z,99881.63
2023-01-13T04:15:54.145Z,99881.28
2023-01-13T04:18:26.316Z,99883.84
2023-01-13T04:20:56.251Z,99883.34
2023-01-13T04:23:32.829Z,99880.66
2023-01-13T04:26:01.569Z,99889.22
2023-01-13T04:28:29.761Z,99889.56
2023-01-13T04:30:57.937Z,99893.66
2023-01-13T04:33:28.540Z,99884.31
2023-01-13T04:35:56.657Z,99895.22
2023-01-13T04:38:24.876Z,99893.81
2023-01-13T04:40:53.063Z,99888.72
2023-01-13T04:43:21.128Z,99895.53
2023-01-13T04:45:49.263Z,99894.59
2023-01-13T04:51:04.448Z,99893.03
2023-01-13T04:53:32.546Z,99896.19
2023-01-13T04:56:00.874Z,99907.28
2023-01-13T04:58:28.999Z,99898.22
2023-01-13T05:00:57.025Z,99905.22
2023-01-13T05:03:26.802Z,99898.72
2023-01-13T05:05:54.895Z,99896.16
2023-01-13T05:08:24.411Z,99902.53
2023-01-13T05:10:52.499Z,99906.94
2023-01-13T05:13:38.368Z,99911.69
2023-01-13T05:16:24.542Z,99909.19
2023-01-13T05:18:52.725Z,99917.84
2023-01-13T05:21:38.203Z,99915.97
2023-01-13T05:24:27.609Z,99921.06
2023-01-13T05:26:55.701Z,99926.28
2023-01-13T05:29:23.811Z,99920.75
2023-01-13T05:31:51.839Z,99924.88
2023-01-13T05:34:20.082Z,99921.25
2023-01-13T05:36:48.220Z,99928.03
2023-01-13T05:39:17.811Z,99930.56
2023-01-13T05:42:03.592Z,99931.81
2023-01-13T05:44:31.743Z,99931.19
2023-01-13T05:47:00.056Z,99918.53
2023-01-13T05:49:28.259Z,99930.09
2023-01-13T05:51:56.247Z,99937.69
2023-01-13T05:54:25.785Z,99932.13
2023-01-13T05:56:53.961Z,99937.06
2023-01-13T05:59:22.113Z,99931.66
2023-01-13T06:01:50.719Z,99941.03
2023-01-13T06:04:18.825Z,99934.50
2023-01-13T06:06:48.572Z,99941.50
2023-01-13T06:09:16.970Z,99937.06
2023-01-13T06:11:46.590Z,99938.03
2023-01-13T06:14:15.004Z,99939.59
2023-01-13T06:16:43.263Z,99946.41
2023-01-13T06:19:13.213Z,99945.47
2023-01-13T06:21:41.788Z,99949.25
2023-01-13T06:24:10.625Z,99957.94
2023-01-13T06:26:41.570Z,99952.72
2023-01-13T06:29:14.135Z,99962.09
2023-01-13T06:31:42.517Z,99955.13
2023-01-13T06:34:14.638Z,99959.25
2023-01-13T06:36:47.030Z,99957.97
2023-01-13T06:39:19.315Z,99963.09
2023-01-13T06:42:11.202Z,99967.06
2023-01-13T06:44:40.960Z,99957.06
2023-01-13T06:47:09.830Z,99958.63
2023-01-13T06:49:37.910Z,99965.00
2023-01-13T06:52:06.584Z,99968.50
2023-01-13T06:54:35.591Z,99967.06
2023-01-13T06:57:04.154Z,99970.25
2023-01-13T06:59:34.475Z,99974.81
2023-01-13T07:02:04.193Z,99971.19
2023-01-13T07:04:32.295Z,99978.97
2023-01-13T07:07:00.571Z,99983.22
2023-01-13T07:09:28.670Z,99981.16
2023-01-13T07:11:56.659Z,99990.03
2023-01-13T07:14:42.196Z,99991.31
2023-01-13T07:17:11.837Z,99981.16
2023-01-13T07:19:39.875Z,99991.47
2023-01-13T07:22:08.126Z,99993.88
2023-01-13T07:24:36.186Z,99994.53
2023-01-13T07:27:04.395Z,99992.94
2023-01-13T07:29:32.421Z,99987.22
2023-01-13T07:32:01.468Z,99991.66
2023-01-13T07:34:30.988Z,99987.72
2023-01-13T07:36:59.097Z,99993.56
2023-01-13T07:39:27.215Z,99992.47
2023-01-13T07:42:13.028Z,99994.53
2023-01-13T07:44:41.082Z,100000.41
2023-01-13T07:47:11.266Z,99998.22
2023-01-13T07:49:40.776Z,99993.75
2023-01-13T07:52:09.096Z,100009.16
2023-01-13T07:54:40.897Z,100003.59
2023-01-13T07:57:09.241Z,100006.13
2023-01-13T07:59:37.616Z,100006.44
2023-01-13T08:02:05.877Z,100014.06
2023-01-13T08:04:34.942Z,100009.44
2023-01-13T08:07:05.641Z,100014.69
2023-01-13T08:09:34.149Z,100017.53
2023-01-13T08:12:15.929Z,100019.94
2023-01-13T08:14:46.540Z,100020.59
2023-01-13T08:17:14.691Z,100025.03
2023-01-13T08:19:42.831Z,100022.63
2023-01-13T08:22:12.275Z,100028.03
2023-01-13T08:24:40.384Z,100026.63
2023-01-13T08:27:08.632Z,100028.53
2023-01-13T08:29:36.723Z,100022.97
2023-01-13T08:32:05.172Z,100030.56
2023-01-13T08:34:33.391Z,100028.22
2023-01-13T08:37:01.592Z,100024.72
2023-01-13T08:39:31.150Z,100031.41
2023-01-13T08:41:59.565Z,100029.66
2023-01-13T08:44:29.002Z,100026.00
2023-01-13T08:46:57.414Z,100025.66
2023-01-13T08:49:26.281Z,100019.81
2023-01-13T08:51:54.985Z,100019.00
2023-01-13T08:54:23.116Z,100029.94
2023-01-13T08:56:52.763Z,100025.81
2023-01-13T08:59:21.428Z,100028.19
2023-01-13T09:01:49.596Z,100029.47
2023-01-13T09:04:19.890Z,100030.59
2023-01-13T09:06:49.359Z,100020.44
2023-01-13T09:09:17.910Z,100025.66
2023-01-13T09:12:05.850Z,100018.31
2023-01-13T09:14:38.442Z,100018.97
2023-01-13T09:17:07.610Z,100015.53
2023-01-13T09:19:36.231Z,100008.72
2023-01-13T09:22:04.595Z,100010.78
2023-01-13T09:24:33.004Z,100007.56
2023-01-13T09:27:01.322Z,100005.31
2023-01-13T09:29:29.748Z,100007.09
2023-01-13T09:31:59.601Z,99997.63
2023-01-13T09:34:45.211Z,100005.69
2023-01-13T09:37:13.426Z,100005.72
2023-01-13T09:39:41.585Z,99993.06
2023-01-13T09:42:37.854Z,99994.00
2023-01-13T09:45:10.115Z,99998.66
2023-01-13T09:47:47.421Z,99998.59
2023-01-13T09:50:30.764Z,99999.38
2023-01-13T09:53:00.780Z,99991.09
2023-01-13T09:55:36.758Z,99987.78
2023-01-13T09:58:12.938Z,99987.47
2023-01-13T10:00:47.242Z,99985.03
2023-01-13T10:03:26.617Z,99978.84
2023-01-13T10:06:02.170Z,99975.41
2023-01-13T10:08:34.747Z,99976.88
2023-01-13T10:11:29.977Z,99980.16
2023-01-13T10:13:59.985Z,99974.25
2023-01-13T10:16:36.801Z,99968.72
2023-01-13T10:19:13.134Z,99965.69
2023-01-13T10:22:09.882Z,99957.25
2023-01-13T10:24:59.821Z,99956.59
2023-01-13T10:27:34.645Z,99949.72
2023-01-13T10:30:13.057Z,99941.72
2023-01-13T10:32:44.901Z,99940.34
2023-01-13T10:35:14.540Z,99944.91
2023-01-13T10:37:57.735Z,99940.59
2023-01-13T10:40:26.772Z,99935.97
2023-01-13T10:43:07.106Z,99929.38
2023-01-13T10:45:35.331Z,99933.84
2023-01-13T10:48:14.115Z,99931.41
2023-01-13T10:50:44.292Z,99921.34
2023-01-13T10:53:25.368Z,99930.63
2023-01-13T10:56:01.789Z,99918.66
2023-01-13T10:58:30.447Z,99920.63
2023-01-13T11:01:03.408Z,99920.84
2023-01-13T11:03:41.692Z,99928.50
2023-01-13T11:06:21.158Z,99925.47
2023-01-13T11:08:51.409Z,99916.09
2023-01-13T11:11:44.770Z,99911.56
2023-01-13T11:14:43.198Z,99913.66
2023-01-13T11:17:30.039Z,99912.97
2023-01-13T11:20:06.796Z,99917.66
2023-01-13T11:22:40.989Z,99914.31
2023-01-13T11:25:15.584Z,99901.63
2023-01-13T11:27:47.706Z,99908.78
2023-01-13T11:30:26.265Z,99903.44
2023-01-13T11:33:16.310Z,99902.63
2023-01-13T11:35:49.936Z,99902.88
2023-01-13T11:38:29.438Z,99905.31
2023-01-13T11:41:01.889Z,99895.78
2023-01-13T11:43:35.738Z,99903.34
2023-01-13T11:46:04.217Z,99905.16
2023-01-13T11:48:37.198Z,99898.50
2023-01-13T11:51:11.670Z,99900.44
2023-01-13T11:53:55.192Z,99901.00
2023-01-13T11:56:44.221Z,99906.63
2023-01-13T11:59:44.671Z,99901.69
2023-01-13T12:02:28.925Z,99901.78
2023-01-13T12:05:10.201Z,99897.66
2023-01-13T12:07:45.235Z,99898.78
2023-01-13T12:10:26.115Z,99906.34
2023-01-13T12:13:04.925Z,99897.66
2023-01-13T12:15:50.737Z,99897.63
2023-01-13T12:18:34.242Z,99891.09
2023-01-13T12:21:16.059Z,99890.66
2023-01-13T12:23:52.053Z,99885.81
2023-01-13T12:26:21.625Z,99886.47
2023-01-13T12:28:54.695Z,99890.53
2023-01-13T12:31:25.018Z,99881.63
2023-01-13T12:34:09.019Z,99879.56
2023-01-13T12:36:53.944Z,99886.81
2023-01-13T12:39:31.066Z,99884.81
2023-01-13T12:42:25.675Z,99883.66
2023-01-13T12:45:22.560Z,99880.03
2023-01-13T12:47:50.989Z,99881.78
2023-01-13T12:50:42.014Z,99891.94
2023-01-13T12:53:34.940Z,99889.44
2023-01-13T12:56:36.204Z,99888.31
2023-01-13T12:59:37.086Z,99889.66
2023-01-13T13:02:27.162Z,99886.03
2023-01-13T13:04:57.321Z,99895.34
2023-01-13T13:07:35.197Z,99895.53
2023-01-13T13:10:13.433Z,99893.03
2023-01-13T13:13:16.624Z,99888.75
2023-01-13T13:15:47.411Z,99901.13
2023-01-13T13:18:27.250Z,99894.69
2023-01-13T13:21:04.295Z,99892.19
2023-01-13T13:24:05.329Z,99901.13
2023-01-13T13:26:46.891Z,99907.16
2023-01-13T13:29:36.263Z,99905.53
2023-01-13T13:32:26.255Z,99903.75
2023-01-13T13:35:08.879Z,99905.59
2023-01-13T13:38:10.215Z,99903.22
2023-01-13T13:40:59.762Z,99904.69
2023-01-13T13:43:46.683Z,99912.47
2023-01-13T13:46:43.285Z,99902.63
2023-01-13T13:49:13.444Z,99901.50
2023-01-13T13:51:46.505Z,99904.75
2023-01-13T13:54:18.134Z,99914.13
2023-01-13T13:56:48.824Z,99909.97
2023-01-13T13:59:21.187Z,99915.78
2023-01-13T14:02:00.823Z,99899.94
2023-01-13T14:04:31.991Z,99905.94
2023-01-13T14:07:01.943Z,99902.84
2023-01-13T14:09:40.122Z,99906.13
2023-01-13T14:12:17.916Z,99908.88
2023-01-13T14:14:47.387Z,99915.31
2023-01-13T14:17:25.174Z,99921.78
2023-01-13T14:20:05.005Z,99913.91
2023-01-13T14:22:33.624Z,99914.75
2023-01-13T14:25:02.128Z,99913.97
2023-01-13T14:27:31.902Z,99925.66
2023-01-13T14:30:01.567Z,99928.03
2023-01-13T14:32:38.644Z,99919.97
2023-01-13T14:35:09.211Z,99920.63
2023-01-13T14:37:39.773Z,99925.06
2023-01-13T14:40:28.655Z,99928.41
2023-01-13T14:43:00.266Z,99929.41
2023-01-13T14:45:29.474Z,99927.34
2023-01-13T14:47:59.959Z,99931.72
2023-01-13T14:50:34.003Z,99943.63
2023-01-13T14:53:05.025Z,99934.25
2023-01-13T14:55:36.497Z,99938.34
2023-01-13T14:58:28.312Z,99941.88
2023-01-13T15:01:28.932Z,99937.75
2023-01-13T15:04:16.220Z,99940.25
2023-01-13T15:06:50.787Z,99940.91
2023-01-13T15:09:26.252Z,99940.81
2023-01-13T15:11:56.357Z,99938.91
2023-01-13T15:14:30.509Z,99947.00
2023-01-13T15:16:58.736Z,99940.03
2023-01-13T15:19:26.818Z,99946.19
2023-01-13T15:21:56.350Z,99947.44
2023-01-13T15:24:24.450Z,99954.13
2023-01-13T15:26:52.681Z,99956.34
2023-01-13T15:29:22.021Z,99948.78
2023-01-13T15:31:50.987Z,99951.31
2023-01-13T15:34:19.096Z,99953.69
2023-01-13T15:36:47.327Z,99952.88
2023-01-13T15:39:17.197Z,99951.66
2023-01-13T15:42:02.963Z,99950.84
2023-01-13T15:44:48.427Z,99959.41
2023-01-13T15:47:16.844Z,99968.78
2023-01-13T15:49:46.510Z,99959.44
2023-01-13T15:52:21.515Z,99956.28
2023-01-13T16:08:56.630Z,99960.03
2023-01-13T16:11:24.739Z,99956.53
2023-01-13T16:13:52.806Z,99961.63
2023-01-13T16:16:23.245Z,99961.63
2023-01-13T16:18:52.101Z,99965.91
2023-01-13T16:21:20.679Z,99962.72
2023-01-13T16:23:49.719Z,99963.72
2023-01-13T16:26:24.487Z,99969.28
2023-01-13T16:28:54.135Z,99963.41
2023-01-13T16:31:27.329Z,99967.25
2023-01-13T16:33:55.760Z,99960.66
2023-01-13T16:36:24.161Z,99959.41
2023-01-13T16:38:53.902Z,99955.47
2023-01-13T16:41:25.169Z,99963.09
2023-01-13T16:43:53.962Z,99963.88
2023-01-13T16:46:24.977Z,99971.84
2023-01-13T16:48:54.529Z,99971.84
2023-01-13T16:51:23.675Z,99969.78
2023-01-13T16:53:52.184Z,99974.25
2023-01-13T16:56:27.406Z,99975.97
2023-01-13T16:58:57.096Z,99974.53
2023-01-13T17:01:28.266Z,99975.34
2023-01-13T17:03:58.021Z,99974.53
2023-01-13T17:06:33.651Z,99973.44
2023-01-13T17:09:02.815Z,99976.13
2023-01-13T17:11:32.570Z,99976.44
2023-01-13T17:14:00.866Z,99972.16
2023-01-13T17:16:44.021Z,99972.94
2023-01-13T17:19:13.199Z,99974.06
2023-01-13T17:21:41.414Z,99981.22
2023-01-13T17:24:10.789Z,99980.41
2023-01-13T17:26:44.124Z,99970.25
2023-01-13T17:29:15.523Z,99975.50
2023-01-13T17:31:43.851Z,99975.00
2023-01-13T17:34:13.384Z,99974.31
2023-01-13T17:36:43.473Z,99970.38
2023-01-13T17:39:17.488Z,99972.94
2023-01-13T17:41:47.676Z,99973.75
2023-01-13T17:44:16.317Z,99970.75
2023-01-13T17:46:44.877Z,99968.50
2023-01-13T17:49:13.562Z,99965.69
2023-01-13T17:51:41.666Z,99971.72
2023-01-13T17:54:12.307Z,99973.28
2023-01-13T17:56:41.244Z,99972.00
2023-01-13T17:59:12.665Z,99970.13
2023-01-13T18:01:41.262Z,99969.66
2023-01-13T18:04:15.014Z,99975.69
2023-01-13T18:06:43.499Z,99959.81
2023-01-13T18:09:12.022Z,99976.78
2023-01-13T18:11:40.311Z,99970.44
2023-01-13T18:14:09.580Z,99965.22
2023-01-13T18:16:39.899Z,99969.19
2023-01-13T18:19:25.376Z,99967.75
2023-01-13T18:22:11.282Z,99960.47
2023-01-13T18:24:56.750Z,99972.81
2023-01-13T18:27:31.221Z,99978.06
2023-01-13T18:30:01.452Z,99981.84
2023-01-13T18:32:33.668Z,99981.06
2023-01-13T18:35:06.755Z,99978.00
2023-01-13T18:37:38.710Z,99988.03
2023-01-13T18:40:09.429Z,99985.16
2023-01-13T18:42:52.009Z,99984.03
2023-01-13T18:45:20.804Z,99985.00
2023-01-13T18:47:52.986Z,99981.97
2023-01-13T18:50:21.843Z,99980.53
2023-01-13T18:52:50.066Z,99981.66
2023-01-13T18:55:18.766Z,99984.94
2023-01-13T18:57:47.193Z,99983.22
2023-01-13T19:00:17.971Z,99984.00
2023-01-13T19:02:47.339Z,99980.19
2023-01-13T19:05:17.515Z,99978.31
2023-01-13T19:07:51.036Z,99985.59
2023-01-13T19:10:19.798Z,99983.22
2023-01-13T19:12:48.029Z,99985.28
2023-01-13T19:15:16.422Z,99993.69
2023-01-13T19:17:45.178Z,99985.00
2023-01-13T19:20:14.111Z,99983.38
2023-01-13T19:22:51.421Z,99982.09
2023-01-13T19:25:19.686Z,99983.84
2023-01-13T19:27:47.898Z,99984.50
2023-01-13T19:30:17.497Z,99983.84
2023-01-13T19:32:45.876Z,99990.81
2023-01-13T19:35:17.709Z,99993.84
2023-01-13T19:37:47.520Z,99989.38
2023-01-13T19:40:16.035Z,99989.91
2023-01-13T19:43:02.797Z,100000.03
2023-01-13T19:45:34.188Z,99990.84
2023-01-13T19:48:05.335Z,99996.06
2023-01-13T19:50:37.829Z,100000.97
2023-01-13T19:53:08.219Z,100007.34
2023-01-13T19:55:36.733Z,99999.41
2023-01-13T19:58:05.500Z,99995.28
2023-01-13T20:00:35.013Z,99988.59
2023-01-13T20:03:08.073Z,99998.00
2023-01-13T20:05:36.374Z,99997.38
2023-01-13T20:08:04.858Z,99999.44
2023-01-13T20:10:34.457Z,99999.63
2023-01-13T20:13:08.296Z,100007.72
2023-01-13T20:15:36.718Z,99998.34
2023-01-13T20:18:05.208Z,99997.84
2023-01-13T20:20:33.453Z,99996.72
2023-01-13T20:23:01.606Z,99997.78
2023-01-13T20:25:30.925Z,100001.72
2023-01-13T20:28:02.289Z,99999.25
2023-01-13T20:30:30.533Z,99996.06
2023-01-13T20:32:58.911Z,99991.19
2023-01-13T20:35:29.688Z,99989.41
2023-01-13T20:37:58.462Z,99993.09
2023-01-13T20:40:26.581Z,99998.28
2023-01-13T20:42:53.902Z,99994.63
2023-01-13T20:45:23.511Z,100002.50
2023-01-13T20:47:51.833Z,99999.38
2023-01-13T20:50:20.220Z,99994.44
2023-01-13T20:52:49.408Z,99997.75
2023-01-13T20:55:19.315Z,100000.44
2023-01-13T20:57:50.355Z,100011.91
2023-01-13T21:00:20.158Z,100001.44
2023-01-13T21:02:49.828Z,100009.50
2023-01-13T21:05:18.414Z,100008.41
2023-01-13T21:07:47.040Z,100005.72
2023-01-13T21:10:15.435Z,100008.38
2023-01-13T21:13:03.041Z,100003.47
2023-01-13T21:15:31.411Z,100009.28
2023-01-13T21:18:18.169Z,100005.78
2023-01-13T21:20:46.422Z,100009.38
2023-01-13T21:23:14.732Z,100006.72
2023-01-13T21:25:43.423Z,99999.28
2023-01-13T21:28:11.928Z,100002.59
2023-01-13T21:30:40.751Z,100005.13
2023-01-13T21:33:14.243Z,100004.38
2023-01-13T21:35:42.813Z,100008.53
2023-01-13T21:38:12.437Z,99997.44
2023-01-13T21:40:40.798Z,99991.56
2023-01-13T21:43:30.249Z,99994.84
2023-01-13T21:46:30.641Z,99995.63
2023-01-13T21:49:00.356Z,99993.06
2023-01-13T21:51:28.984Z,99989.72
2023-01-13T21:53:57.769Z,99992.25
2023-01-13T21:56:26.478Z,99980.97
2023-01-13T21:59:00.255Z,99982.91
2023-01-13T22:01:28.658Z,99983.81
2023-01-13T22:04:15.434Z,99971.94
2023-01-13T22:06:44.978Z,99980.19
2023-01-13T22:09:13.395Z,99978.28
2023-01-13T22:11:41.545Z,99979.25
2023-01-13T22:14:11.139Z,99981.44
2023-01-13T22:16:42.528Z,99971.69
2023-01-13T22:19:12.328Z,99958.56
2023-01-13T22:21:40.720Z,99958.06
2023-01-13T22:24:11.609Z,99957.41
2023-01-13T22:26:39.792Z,99960.38
2023-01-13T22:29:08.029Z,99949.91
2023-01-13T22:31:36.356Z,99950.69
2023-01-13T22:34:04.715Z,99953.72
2023-01-13T22:36:32.880Z,99958.84
2023-01-13T22:39:04.814Z,99950.88
2023-01-13T22:41:34.559Z,99946.88
2023-01-13T22:44:02.741Z,99945.84
2023-01-13T22:46:30.926Z,99949.81
2023-01-13T22:48:59.184Z,99946.16
2023-01-13T22:51:27.694Z,99940.16
2023-01-13T22:53:56.040Z,99943.75
2023-01-13T22:56:25.667Z,99935.38
2023-01-13T22:59:01.722Z,99936.13
2023-01-13T23:01:32.393Z,99942.44
2023-01-13T23:04:01.163Z,99944.03
2023-01-13T23:06:31.645Z,99941.63
2023-01-13T23:08:59.984Z,99943.09
2023-01-13T23:11:30.875Z,99935.03
2023-01-13T23:14:01.626Z,99945.19
2023-01-13T23:16:31.719Z,99946.44
2023-01-13T23:18:59.990Z,99941.06
2023-01-13T23:21:30.613Z,99946.97
2023-01-13T23:23:59.297Z,99948.59
2023-01-13T23:26:28.510Z,99942.13
2023-01-13T23:29:01.535Z,99943.53
2023-01-13T23:31:30.063Z,99942.22
2023-01-13T23:33:58.802Z,99943.81
2023-01-13T23:36:29.066Z,99934.22
2023-01-13T23:38:59.213Z,99939.31
2023-01-13T23:41:32.077Z,99941.50
2023-01-13T23:44:02.092Z,99955.00
2023-01-13T23:46:31.438Z,99952.91
2023-01-13T23:49:00.098Z,99949.38
2023-01-13T23:51:30.074Z,99950.50
2023-01-13T23:53:58.878Z,99948.66
2023-01-13T23:56:29.834Z,99951.56
2023-01-13T23:58:58.684Z,99964.34
